Check out our new PWSWeather beta!
PWSweather.com
Personal Weather Stations
Station Observations
ILOMBARD30
LodiIT 26900

LodiIT 26900

Lat: 45.2993, Lon: 9.5207

Elevation: 255

Station Type: Davis Vantege Pro2 Plus 24h

http://www.meteo-iw2gob.it

High Low Average
Temperature 79.5°F26.4°C 68.9°F20.5°C 74.4°F23.6°C
Dew Point 69.9°F21.1°C 63.7°F17.6°C 66.3°F19.1°C
Winds 9.2 mph 14.8 kmh Calm Calm 2.0 mph SE3.2 kmh SE
Wind Gusts 15.0 mph24.1 kmh -- 2.0 mph3.2 kmh
Humidity 92% 62% 77%
Pressure 30.14 in1020.7 mb 30.06 in1017.9 mb -
Precipitation 0.05 in1.3 mm - -
Hour Temp Dew Point Humidity Winds Wind Gusts Pressure Precip Precip Rate Daily Precip Total
12:00 AM 72.9°F22.7°C 64.1°F17.8°C 74% Calm Calm -- 30.08 in1018.6 mb - 0.00 in0.0 mm 0.00 in0.0 mm
12:05 AM 72.8°F22.7°C 64.4°F18.0°C 75% Calm Calm -- 30.08 in1018.6 mb - 0.00 in0.0 mm 0.00 in0.0 mm
12:10 AM 72.6°F22.6°C 64.3°F17.9°C 75% Calm Calm -- 30.08 in1018.6 mb - 0.00 in0.0 mm 0.00 in0.0 mm
12:15 AM 72.5°F22.5°C 64.5°F18.1°C 76% Calm Calm -- 30.08 in1018.6 mb - 0.00 in0.0 mm 0.00 in0.0 mm
12:20 AM 72.4°F22.4°C 64.4°F18.0°C 76% Calm Calm -- 30.08 in1018.6 mb - 0.00 in0.0 mm 0.00 in0.0 mm
12:25 AM 72.3°F22.4°C 64.3°F17.9°C 76% Calm Calm -- 30.08 in1018.6 mb - 0.00 in0.0 mm 0.00 in0.0 mm
12:30 AM 72.2°F22.3°C 64.2°F17.9°C 76% Calm Calm -- 30.08 in1018.6 mb - 0.00 in0.0 mm 0.00 in0.0 mm
12:35 AM 72.1°F22.3°C 63.7°F17.6°C 75% Calm Calm -- 30.08 in1018.6 mb - 0.00 in0.0 mm 0.00 in0.0 mm
12:40 AM 72.1°F22.3°C 63.7°F17.6°C 75% Calm Calm -- 30.08 in1018.6 mb - 0.00 in0.0 mm 0.00 in0.0 mm
12:45 AM 72.1°F22.3°C 64.1°F17.8°C 76% Calm Calm -- 30.08 in1018.6 mb - 0.00 in0.0 mm 0.00 in0.0 mm
12:50 AM 72.1°F22.3°C 64.5°F18.1°C 77% Calm Calm -- 30.08 in1018.6 mb - 0.00 in0.0 mm 0.00 in0.0 mm
12:55 AM 72.1°F22.3°C 64.5°F18.1°C 77% Calm Calm -- 30.08 in1018.6 mb - 0.00 in0.0 mm 0.00 in0.0 mm
01:00 AM 72.1°F22.3°C 64.4°F18.0°C 77% Calm Calm -- 30.08 in1018.6 mb - 0.00 in0.0 mm 0.00 in0.0 mm
01:05 AM 72.0°F22.2°C 64.4°F18.0°C 77% Calm Calm -- 30.08 in1018.6 mb - 0.00 in0.0 mm 0.00 in0.0 mm
01:10 AM 71.9°F22.2°C 64.3°F17.9°C 77% Calm Calm -- 30.08 in1018.6 mb - 0.00 in0.0 mm 0.00 in0.0 mm
01:15 AM 71.8°F22.1°C 64.6°F18.1°C 78% Calm Calm -- 30.08 in1018.6 mb - 0.00 in0.0 mm 0.00 in0.0 mm
01:20 AM 71.7°F22.1°C 64.5°F18.1°C 78% Calm Calm -- 30.07 in1018.3 mb - 0.00 in0.0 mm 0.00 in0.0 mm
01:25 AM 71.5°F21.9°C 64.3°F17.9°C 78% Calm Calm -- 30.07 in1018.3 mb - 0.00 in0.0 mm 0.00 in0.0 mm
01:30 AM 71.4°F21.9°C 64.2°F17.9°C 78% Calm Calm -- 30.07 in1018.3 mb - 0.00 in0.0 mm 0.00 in0.0 mm
01:35 AM 71.3°F21.8°C 64.4°F18.0°C 79% Calm Calm -- 30.07 in1018.3 mb - 0.00 in0.0 mm 0.00 in0.0 mm
01:40 AM 71.1°F21.7°C 64.3°F17.9°C 79% Calm Calm -- 30.07 in1018.3 mb - 0.00 in0.0 mm 0.00 in0.0 mm
01:45 AM 70.9°F21.6°C 64.4°F18.0°C 80% Calm Calm -- 30.07 in1018.3 mb - 0.00 in0.0 mm 0.00 in0.0 mm
01:50 AM 70.8°F21.6°C 64.7°F18.2°C 81% 1.2 mph SSE1.9 kmh SSE 2.3 mph3.7 kmh 30.07 in1018.3 mb - 0.00 in0.0 mm 0.00 in0.0 mm
01:55 AM 70.7°F21.5°C 64.6°F18.1°C 81% Calm Calm -- 30.07 in1018.3 mb - 0.00 in0.0 mm 0.00 in0.0 mm
02:00 AM 70.7°F21.5°C 64.6°F18.1°C 81% Calm Calm -- 30.07 in1018.3 mb - 0.00 in0.0 mm 0.00 in0.0 mm
02:05 AM 70.6°F21.4°C 64.8°F18.2°C 82% Calm Calm -- 30.07 in1018.3 mb - 0.00 in0.0 mm 0.00 in0.0 mm
02:10 AM 70.6°F21.4°C 64.8°F18.2°C 82% Calm Calm -- 30.07 in1018.3 mb - 0.00 in0.0 mm 0.00 in0.0 mm
02:15 AM 70.6°F21.4°C 64.8°F18.2°C 82% Calm Calm -- 30.07 in1018.3 mb - 0.00 in0.0 mm 0.00 in0.0 mm
02:20 AM 70.5°F21.4°C 64.7°F18.2°C 82% Calm Calm -- 30.07 in1018.3 mb - 0.00 in0.0 mm 0.00 in0.0 mm
02:25 AM 70.4°F21.3°C 64.6°F18.1°C 82% Calm Calm -- 30.07 in1018.3 mb - 0.00 in0.0 mm 0.00 in0.0 mm
02:30 AM 70.4°F21.3°C 65.0°F18.3°C 83% Calm Calm -- 30.07 in1018.3 mb - 0.00 in0.0 mm 0.00 in0.0 mm
02:35 AM 70.3°F21.3°C 64.9°F18.3°C 83% Calm Calm -- 30.07 in1018.3 mb - 0.00 in0.0 mm 0.00 in0.0 mm
02:40 AM 70.3°F21.3°C 64.9°F18.3°C 83% Calm Calm -- 30.07 in1018.3 mb - 0.00 in0.0 mm 0.00 in0.0 mm
02:45 AM 70.3°F21.3°C 65.2°F18.4°C 84% Calm Calm -- 30.07 in1018.3 mb - 0.00 in0.0 mm 0.00 in0.0 mm
02:50 AM 70.3°F21.3°C 65.2°F18.4°C 84% Calm Calm -- 30.07 in1018.3 mb - 0.00 in0.0 mm 0.00 in0.0 mm
02:55 AM 70.3°F21.3°C 65.2°F18.4°C 84% 2.3 mph SSE3.7 kmh SSE 3.5 mph5.6 kmh 30.06 in1017.9 mb - 0.00 in0.0 mm 0.00 in0.0 mm
03:00 AM 70.2°F21.2°C 65.2°F18.4°C 84% Calm Calm -- 30.07 in1018.3 mb - 0.00 in0.0 mm 0.00 in0.0 mm
03:05 AM 70.3°F21.3°C 65.2°F18.4°C 84% 1.2 mph SSE1.9 kmh SSE 2.3 mph3.7 kmh 30.07 in1018.3 mb - 0.00 in0.0 mm 0.00 in0.0 mm
03:10 AM 70.2°F21.2°C 65.1°F18.4°C 84% Calm Calm 1.2 mph1.9 kmh 30.07 in1018.3 mb - 0.00 in0.0 mm 0.00 in0.0 mm
03:15 AM 70.2°F21.2°C 65.1°F18.4°C 84% Calm Calm -- 30.07 in1018.3 mb - 0.00 in0.0 mm 0.00 in0.0 mm
03:20 AM 70.2°F21.2°C 65.1°F18.4°C 84% Calm Calm -- 30.07 in1018.3 mb - 0.00 in0.0 mm 0.00 in0.0 mm
03:25 AM 70.3°F21.3°C 65.2°F18.4°C 84% Calm Calm 1.2 mph1.9 kmh 30.07 in1018.3 mb - 0.00 in0.0 mm 0.00 in0.0 mm
03:30 AM 70.3°F21.3°C 65.2°F18.4°C 84% Calm Calm -- 30.07 in1018.3 mb - 0.00 in0.0 mm 0.00 in0.0 mm
03:35 AM 70.3°F21.3°C 65.2°F18.4°C 84% Calm Calm -- 30.07 in1018.3 mb - 0.00 in0.0 mm 0.00 in0.0 mm
03:40 AM 70.3°F21.3°C 65.2°F18.4°C 84% Calm Calm -- 30.07 in1018.3 mb - 0.01 in0.3 mm 0.01 in0.3 mm
03:45 AM 70.4°F21.3°C 65.3°F18.5°C 84% Calm Calm -- 30.07 in1018.3 mb - 0.01 in0.3 mm 0.02 in0.5 mm
03:50 AM 70.6°F21.4°C 66.2°F19.0°C 86% 1.2 mph SSE1.9 kmh SSE 3.5 mph5.6 kmh 30.08 in1018.6 mb - 0.01 in0.3 mm 0.03 in0.8 mm
03:55 AM 70.7°F21.5°C 66.3°F19.1°C 86% Calm Calm -- 30.07 in1018.3 mb - 0.01 in0.3 mm 0.04 in1.0 mm
04:00 AM 70.7°F21.5°C 66.3°F19.1°C 86% Calm Calm -- 30.07 in1018.3 mb - 0.00 in0.0 mm 0.04 in1.0 mm
04:05 AM 70.7°F21.5°C 66.3°F19.1°C 86% Calm Calm -- 30.07 in1018.3 mb - 0.00 in0.0 mm 0.04 in1.0 mm
04:10 AM 70.7°F21.5°C 66.6°F19.2°C 87% Calm Calm -- 30.07 in1018.3 mb - 0.00 in0.0 mm 0.04 in1.0 mm
04:15 AM 70.6°F21.4°C 66.5°F19.2°C 87% Calm Calm -- 30.07 in1018.3 mb - 0.00 in0.0 mm 0.04 in1.0 mm
04:20 AM 70.5°F21.4°C 66.4°F19.1°C 87% Calm Calm -- 30.07 in1018.3 mb - 0.00 in0.0 mm 0.04 in1.0 mm
04:25 AM 70.5°F21.4°C 66.4°F19.1°C 87% Calm Calm -- 30.07 in1018.3 mb - 0.00 in0.0 mm 0.04 in1.0 mm
04:30 AM 70.5°F21.4°C 66.8°F19.3°C 88% 1.2 mph SSE1.9 kmh SSE 1.2 mph1.9 kmh 30.08 in1018.6 mb - 0.00 in0.0 mm 0.04 in1.0 mm
04:35 AM 70.4°F21.3°C 66.7°F19.3°C 88% Calm Calm -- 30.07 in1018.3 mb - 0.00 in0.0 mm 0.04 in1.0 mm
04:40 AM 70.4°F21.3°C 66.7°F19.3°C 88% Calm Calm -- 30.07 in1018.3 mb - 0.00 in0.0 mm 0.04 in1.0 mm
04:45 AM 70.4°F21.3°C 66.7°F19.3°C 88% 1.2 mph SSE1.9 kmh SSE 3.5 mph5.6 kmh 30.07 in1018.3 mb - 0.00 in0.0 mm 0.04 in1.0 mm
04:50 AM 70.2°F21.2°C 66.5°F19.2°C 88% 2.3 mph SSE3.7 kmh SSE 2.3 mph3.7 kmh 30.07 in1018.3 mb - 0.00 in0.0 mm 0.04 in1.0 mm
04:55 AM 70.0°F21.1°C 66.3°F19.1°C 88% 1.2 mph SSE1.9 kmh SSE 3.5 mph5.6 kmh 30.07 in1018.3 mb - 0.00 in0.0 mm 0.04 in1.0 mm
05:00 AM 69.8°F21.0°C 66.4°F19.1°C 89% 1.2 mph SSE1.9 kmh SSE 2.3 mph3.7 kmh 30.07 in1018.3 mb - 0.00 in0.0 mm 0.04 in1.0 mm
05:05 AM 69.6°F20.9°C 66.2°F19.0°C 89% Calm Calm -- 30.07 in1018.3 mb - 0.00 in0.0 mm 0.04 in1.0 mm
05:10 AM 69.5°F20.8°C 66.1°F18.9°C 89% Calm Calm -- 30.07 in1018.3 mb - 0.00 in0.0 mm 0.04 in1.0 mm
05:15 AM 69.5°F20.8°C 66.1°F18.9°C 89% Calm Calm -- 30.08 in1018.6 mb - 0.00 in0.0 mm 0.04 in1.0 mm
05:20 AM 69.4°F20.8°C 66.0°F18.9°C 89% Calm Calm -- 30.08 in1018.6 mb - 0.00 in0.0 mm 0.04 in1.0 mm
05:25 AM 69.4°F20.8°C 66.0°F18.9°C 89% Calm Calm -- 30.08 in1018.6 mb - 0.00 in0.0 mm 0.04 in1.0 mm
05:30 AM 69.4°F20.8°C 66.3°F19.1°C 90% 2.3 mph SSE3.7 kmh SSE 2.3 mph3.7 kmh 30.09 in1019.0 mb - 0.00 in0.0 mm 0.04 in1.0 mm
05:35 AM 69.3°F20.7°C 66.2°F19.0°C 90% Calm Calm -- 30.09 in1019.0 mb - 0.00 in0.0 mm 0.04 in1.0 mm
05:40 AM 69.2°F20.7°C 66.1°F18.9°C 90% Calm Calm -- 30.09 in1019.0 mb - 0.00 in0.0 mm 0.04 in1.0 mm
05:45 AM 69.2°F20.7°C 66.1°F18.9°C 90% Calm Calm -- 30.09 in1019.0 mb - 0.00 in0.0 mm 0.04 in1.0 mm
05:50 AM 69.2°F20.7°C 66.1°F18.9°C 90% Calm Calm -- 30.09 in1019.0 mb - 0.00 in0.0 mm 0.04 in1.0 mm
05:55 AM 69.1°F20.6°C 66.4°F19.1°C 91% Calm Calm -- 30.09 in1019.0 mb - 0.00 in0.0 mm 0.04 in1.0 mm
06:00 AM 69.1°F20.6°C 66.4°F19.1°C 91% Calm Calm -- 30.10 in1019.3 mb - 0.00 in0.0 mm 0.04 in1.0 mm
06:05 AM 69.0°F20.6°C 66.3°F19.1°C 91% Calm Calm -- 30.09 in1019.0 mb - 0.00 in0.0 mm 0.04 in1.0 mm
06:10 AM 69.0°F20.6°C 66.3°F19.1°C 91% Calm Calm -- 30.10 in1019.3 mb - 0.00 in0.0 mm 0.04 in1.0 mm
06:15 AM 68.9°F20.5°C 66.2°F19.0°C 91% Calm Calm -- 30.10 in1019.3 mb - 0.00 in0.0 mm 0.04 in1.0 mm
06:20 AM 68.9°F20.5°C 66.2°F19.0°C 91% 1.2 mph SE1.9 kmh SE 1.2 mph1.9 kmh 30.10 in1019.3 mb - 0.00 in0.0 mm 0.04 in1.0 mm
06:25 AM 68.9°F20.5°C 66.2°F19.0°C 91% Calm Calm -- 30.10 in1019.3 mb - 0.00 in0.0 mm 0.04 in1.0 mm
06:30 AM 68.9°F20.5°C 66.2°F19.0°C 91% Calm Calm -- 30.11 in1019.6 mb - 0.00 in0.0 mm 0.04 in1.0 mm
06:35 AM 68.9°F20.5°C 66.2°F19.0°C 91% Calm Calm -- 30.11 in1019.6 mb - 0.00 in0.0 mm 0.04 in1.0 mm
06:40 AM 68.9°F20.5°C 66.2°F19.0°C 91% Calm Calm -- 30.11 in1019.6 mb - 0.00 in0.0 mm 0.04 in1.0 mm
06:45 AM 68.9°F20.5°C 66.5°F19.2°C 92% Calm Calm -- 30.11 in1019.6 mb - 0.00 in0.0 mm 0.04 in1.0 mm
06:50 AM 69.0°F20.6°C 66.6°F19.2°C 92% Calm Calm 1.2 mph1.9 kmh 30.11 in1019.6 mb - 0.00 in0.0 mm 0.04 in1.0 mm
06:55 AM 69.0°F20.6°C 66.6°F19.2°C 92% Calm Calm 2.3 mph3.7 kmh 30.11 in1019.6 mb - 0.00 in0.0 mm 0.04 in1.0 mm
07:00 AM 69.0°F20.6°C 66.6°F19.2°C 92% 1.2 mph SE1.9 kmh SE 2.3 mph3.7 kmh 30.11 in1019.6 mb - 0.00 in0.0 mm 0.04 in1.0 mm
07:05 AM 68.9°F20.5°C 66.5°F19.2°C 92% Calm Calm 1.2 mph1.9 kmh 30.11 in1019.6 mb - 0.00 in0.0 mm 0.04 in1.0 mm
07:10 AM 69.0°F20.6°C 66.6°F19.2°C 92% Calm Calm 1.2 mph1.9 kmh 30.11 in1019.6 mb - 0.00 in0.0 mm 0.04 in1.0 mm
07:15 AM 69.0°F20.6°C 66.6°F19.2°C 92% Calm Calm 1.2 mph1.9 kmh 30.11 in1019.6 mb - 0.00 in0.0 mm 0.04 in1.0 mm
07:20 AM 69.1°F20.6°C 66.7°F19.3°C 92% Calm Calm -- 30.11 in1019.6 mb - 0.00 in0.0 mm 0.04 in1.0 mm
07:25 AM 69.1°F20.6°C 66.7°F19.3°C 92% Calm Calm -- 30.11 in1019.6 mb - 0.00 in0.0 mm 0.04 in1.0 mm
07:30 AM 69.2°F20.7°C 66.8°F19.3°C 92% Calm Calm -- 30.11 in1019.6 mb - 0.00 in0.0 mm 0.04 in1.0 mm
07:35 AM 69.2°F20.7°C 66.8°F19.3°C 92% Calm Calm -- 30.11 in1019.6 mb - 0.00 in0.0 mm 0.04 in1.0 mm
07:40 AM 69.4°F20.8°C 67.0°F19.4°C 92% Calm Calm -- 30.11 in1019.6 mb - 0.00 in0.0 mm 0.04 in1.0 mm
07:45 AM 69.4°F20.8°C 67.0°F19.4°C 92% 2.3 mph ESE3.7 kmh ESE 3.5 mph5.6 kmh 30.11 in1019.6 mb - 0.00 in0.0 mm 0.04 in1.0 mm
07:50 AM 69.4°F20.8°C 67.0°F19.4°C 92% 1.2 mph ENE1.9 kmh ENE 2.3 mph3.7 kmh 30.11 in1019.6 mb - 0.00 in0.0 mm 0.04 in1.0 mm
07:55 AM 69.5°F20.8°C 67.1°F19.5°C 92% 2.3 mph ENE3.7 kmh ENE 3.5 mph5.6 kmh 30.12 in1020.0 mb - 0.00 in0.0 mm 0.04 in1.0 mm
08:00 AM 69.7°F20.9°C 67.2°F19.6°C 92% 1.2 mph ENE1.9 kmh ENE 2.3 mph3.7 kmh 30.11 in1019.6 mb - 0.00 in0.0 mm 0.04 in1.0 mm
08:05 AM 69.8°F21.0°C 67.4°F19.7°C 92% 2.3 mph ENE3.7 kmh ENE 3.5 mph5.6 kmh 30.11 in1019.6 mb - 0.00 in0.0 mm 0.04 in1.0 mm
08:10 AM 69.8°F21.0°C 67.4°F19.7°C 92% 1.2 mph ENE1.9 kmh ENE 2.3 mph3.7 kmh 30.11 in1019.6 mb - 0.00 in0.0 mm 0.04 in1.0 mm
08:15 AM 69.9°F21.1°C 67.5°F19.7°C 92% 1.2 mph ENE1.9 kmh ENE 2.3 mph3.7 kmh 30.11 in1019.6 mb - 0.00 in0.0 mm 0.04 in1.0 mm
08:20 AM 70.1°F21.2°C 67.4°F19.7°C 91% 1.2 mph ENE1.9 kmh ENE 2.3 mph3.7 kmh 30.12 in1020.0 mb - 0.00 in0.0 mm 0.04 in1.0 mm
08:25 AM 70.5°F21.4°C 67.8°F19.9°C 91% 1.2 mph ENE1.9 kmh ENE 2.3 mph3.7 kmh 30.12 in1020.0 mb - 0.00 in0.0 mm 0.04 in1.0 mm
08:30 AM 70.8°F21.6°C 68.0°F20.0°C 91% 2.3 mph ENE3.7 kmh ENE 3.5 mph5.6 kmh 30.12 in1020.0 mb - 0.00 in0.0 mm 0.04 in1.0 mm
08:35 AM 71.0°F21.7°C 67.9°F19.9°C 90% 3.5 mph NNE5.6 kmh NNE 3.5 mph5.6 kmh 30.11 in1019.6 mb - 0.00 in0.0 mm 0.04 in1.0 mm
08:40 AM 71.2°F21.8°C 67.8°F19.9°C 89% 3.5 mph N5.6 kmh N 5.8 mph9.3 kmh 30.11 in1019.6 mb - 0.00 in0.0 mm 0.04 in1.0 mm
08:45 AM 71.4°F21.9°C 68.3°F20.2°C 90% 3.5 mph N5.6 kmh N 4.6 mph7.4 kmh 30.12 in1020.0 mb - 0.00 in0.0 mm 0.04 in1.0 mm
08:50 AM 71.7°F22.1°C 68.6°F20.3°C 90% 4.6 mph N7.4 kmh N 5.8 mph9.3 kmh 30.12 in1020.0 mb - 0.00 in0.0 mm 0.04 in1.0 mm
08:55 AM 71.9°F22.2°C 68.5°F20.3°C 89% 3.5 mph N5.6 kmh N 6.9 mph11.1 kmh 30.11 in1019.6 mb - 0.00 in0.0 mm 0.04 in1.0 mm
09:00 AM 72.1°F22.3°C 68.3°F20.2°C 88% 3.5 mph 5.6 kmh 4.6 mph7.4 kmh 30.11 in1019.6 mb - 0.00 in0.0 mm 0.04 in1.0 mm
09:05 AM 72.6°F22.6°C 68.8°F20.4°C 88% 3.5 mph NNE5.6 kmh NNE 3.5 mph5.6 kmh 30.11 in1019.6 mb - 0.00 in0.0 mm 0.04 in1.0 mm
09:10 AM 73.0°F22.8°C 68.9°F20.5°C 87% 3.5 mph N5.6 kmh N 3.5 mph5.6 kmh 30.12 in1020.0 mb - 0.00 in0.0 mm 0.04 in1.0 mm
09:15 AM 73.3°F22.9°C 68.5°F20.3°C 85% 3.5 mph NE5.6 kmh NE 3.5 mph5.6 kmh 30.12 in1020.0 mb - 0.00 in0.0 mm 0.04 in1.0 mm
09:20 AM 73.7°F23.2°C 68.5°F20.3°C 84% 3.5 mph NE5.6 kmh NE 5.8 mph9.3 kmh 30.12 in1020.0 mb - 0.00 in0.0 mm 0.04 in1.0 mm
09:25 AM 73.9°F23.3°C 68.4°F20.2°C 83% 3.5 mph NE5.6 kmh NE 3.5 mph5.6 kmh 30.12 in1020.0 mb - 0.00 in0.0 mm 0.04 in1.0 mm
09:30 AM 74.4°F23.6°C 68.5°F20.3°C 82% 2.3 mph ENE3.7 kmh ENE 3.5 mph5.6 kmh 30.12 in1020.0 mb - 0.00 in0.0 mm 0.04 in1.0 mm
09:35 AM 74.9°F23.8°C 69.0°F20.6°C 82% 4.6 mph N7.4 kmh N 6.9 mph11.1 kmh 30.11 in1019.6 mb - 0.00 in0.0 mm 0.04 in1.0 mm
09:40 AM 75.1°F23.9°C 68.9°F20.5°C 81% 3.5 mph ENE5.6 kmh ENE 4.6 mph7.4 kmh 30.12 in1020.0 mb - 0.00 in0.0 mm 0.04 in1.0 mm
09:45 AM 75.5°F24.2°C 69.2°F20.7°C 81% 3.5 mph NE5.6 kmh NE 4.6 mph7.4 kmh 30.11 in1019.6 mb - 0.00 in0.0 mm 0.04 in1.0 mm
09:50 AM 75.8°F24.3°C 69.2°F20.7°C 80% 4.6 mph NE7.4 kmh NE 8.1 mph13.0 kmh 30.11 in1019.6 mb - 0.00 in0.0 mm 0.04 in1.0 mm
09:55 AM 76.2°F24.6°C 69.6°F20.9°C 80% 2.3 mph NE3.7 kmh NE 3.5 mph5.6 kmh 30.12 in1020.0 mb - 0.00 in0.0 mm 0.04 in1.0 mm
10:00 AM 76.9°F24.9°C 69.9°F21.1°C 79% 3.5 mph E5.6 kmh E 6.9 mph11.1 kmh 30.12 in1020.0 mb - 0.00 in0.0 mm 0.04 in1.0 mm
10:05 AM 77.5°F25.3°C 69.3°F20.7°C 76% 3.5 mph NNE5.6 kmh NNE 4.6 mph7.4 kmh 30.12 in1020.0 mb - 0.00 in0.0 mm 0.04 in1.0 mm
10:10 AM 77.7°F25.4°C 69.1°F20.6°C 75% 4.6 mph NE7.4 kmh NE 8.1 mph13.0 kmh 30.12 in1020.0 mb - 0.00 in0.0 mm 0.04 in1.0 mm
10:15 AM 77.8°F25.4°C 69.2°F20.7°C 75% 2.3 mph E3.7 kmh E 3.5 mph5.6 kmh 30.13 in1020.3 mb - 0.00 in0.0 mm 0.04 in1.0 mm
10:20 AM 77.9°F25.5°C 68.9°F20.5°C 74% 3.5 mph SE5.6 kmh SE 5.8 mph9.3 kmh 30.13 in1020.3 mb - 0.00 in0.0 mm 0.04 in1.0 mm
10:25 AM 77.9°F25.5°C 67.7°F19.8°C 71% 8.1 mph ESE13.0 kmh ESE 9.2 mph14.8 kmh 30.13 in1020.3 mb - 0.00 in0.0 mm 0.04 in1.0 mm
10:30 AM 77.8°F25.4°C 68.1°F20.1°C 72% 6.9 mph E11.1 kmh E 15.0 mph24.1 kmh 30.13 in1020.3 mb - 0.00 in0.0 mm 0.04 in1.0 mm
10:35 AM 77.8°F25.4°C 66.4°F19.1°C 68% 9.2 mph SE14.8 kmh SE 13.8 mph22.2 kmh 30.13 in1020.3 mb - 0.00 in0.0 mm 0.04 in1.0 mm
10:40 AM 78.0°F25.6°C 66.5°F19.2°C 68% 5.8 mph ESE9.3 kmh ESE 10.4 mph16.7 kmh 30.13 in1020.3 mb - 0.00 in0.0 mm 0.04 in1.0 mm
10:45 AM 78.0°F25.6°C 66.2°F19.0°C 67% 6.9 mph SE11.1 kmh SE 11.5 mph18.5 kmh 30.13 in1020.3 mb - 0.00 in0.0 mm 0.04 in1.0 mm
10:50 AM 78.0°F25.6°C 66.2°F19.0°C 67% 9.2 mph SE14.8 kmh SE 13.8 mph22.2 kmh 30.13 in1020.3 mb - 0.00 in0.0 mm 0.04 in1.0 mm
10:55 AM 78.0°F25.6°C 66.2°F19.0°C 67% 6.9 mph E11.1 kmh E 8.1 mph13.0 kmh 30.13 in1020.3 mb - 0.00 in0.0 mm 0.04 in1.0 mm
11:00 AM 78.2°F25.7°C 66.3°F19.1°C 67% 6.9 mph ESE11.1 kmh ESE 9.2 mph14.8 kmh 30.13 in1020.3 mb - 0.00 in0.0 mm 0.04 in1.0 mm
11:05 AM 78.5°F25.8°C 67.1°F19.5°C 68% 8.1 mph ESE13.0 kmh ESE 11.5 mph18.5 kmh 30.13 in1020.3 mb - 0.00 in0.0 mm 0.04 in1.0 mm
11:10 AM 78.6°F25.9°C 66.7°F19.3°C 67% 6.9 mph SE11.1 kmh SE 9.2 mph14.8 kmh 30.13 in1020.3 mb - 0.00 in0.0 mm 0.04 in1.0 mm
11:15 AM 78.9°F26.1°C 67.1°F19.5°C 67% 4.6 mph SE7.4 kmh SE 11.5 mph18.5 kmh 30.14 in1020.7 mb - 0.00 in0.0 mm 0.04 in1.0 mm
11:20 AM 78.9°F26.1°C 66.2°F19.0°C 65% 8.1 mph ESE13.0 kmh ESE 13.8 mph22.2 kmh 30.14 in1020.7 mb - 0.00 in0.0 mm 0.04 in1.0 mm
11:25 AM 78.5°F25.8°C 65.8°F18.8°C 65% 8.1 mph SE13.0 kmh SE 13.8 mph22.2 kmh 30.14 in1020.7 mb - 0.00 in0.0 mm 0.04 in1.0 mm
11:30 AM 78.3°F25.7°C 65.6°F18.7°C 65% 8.1 mph E13.0 kmh E 11.5 mph18.5 kmh 30.13 in1020.3 mb - 0.00 in0.0 mm 0.04 in1.0 mm
11:35 AM 78.2°F25.7°C 65.9°F18.8°C 66% 3.5 mph ESE5.6 kmh ESE 6.9 mph11.1 kmh 30.13 in1020.3 mb - 0.00 in0.0 mm 0.04 in1.0 mm
11:40 AM 78.2°F25.7°C 66.3°F19.1°C 67% 4.6 mph E7.4 kmh E 5.8 mph9.3 kmh 30.13 in1020.3 mb - 0.00 in0.0 mm 0.04 in1.0 mm
11:45 AM 78.3°F25.7°C 66.9°F19.4°C 68% 3.5 mph ESE5.6 kmh ESE 4.6 mph7.4 kmh 30.13 in1020.3 mb - 0.00 in0.0 mm 0.04 in1.0 mm
11:50 AM 78.3°F25.7°C 66.5°F19.2°C 67% 2.3 mph ESE3.7 kmh ESE 3.5 mph5.6 kmh 30.12 in1020.0 mb - 0.01 in0.3 mm 0.05 in1.3 mm
11:55 AM 78.5°F25.8°C 67.5°F19.7°C 69% 4.6 mph ESE7.4 kmh ESE 6.9 mph11.1 kmh 30.12 in1020.0 mb - 0.00 in0.0 mm 0.05 in1.3 mm
12:00 PM 78.5°F25.8°C 67.1°F19.5°C 68% 4.6 mph SE7.4 kmh SE 3.5 mph5.6 kmh 30.12 in1020.0 mb - 0.00 in0.0 mm 0.05 in1.3 mm
12:05 PM 78.5°F25.8°C 66.6°F19.2°C 67% 5.8 mph SE9.3 kmh SE 9.2 mph14.8 kmh 30.12 in1020.0 mb - 0.00 in0.0 mm 0.05 in1.3 mm
12:10 PM 78.2°F25.7°C 66.3°F19.1°C 67% 4.6 mph SE7.4 kmh SE 6.9 mph11.1 kmh 30.12 in1020.0 mb - 0.00 in0.0 mm 0.05 in1.3 mm
12:15 PM 78.5°F25.8°C 67.5°F19.7°C 69% 3.5 mph E5.6 kmh E 4.6 mph7.4 kmh 30.12 in1020.0 mb - 0.00 in0.0 mm 0.05 in1.3 mm
12:20 PM 78.7°F25.9°C 66.4°F19.1°C 66% 3.5 mph SE5.6 kmh SE 3.5 mph5.6 kmh 30.12 in1020.0 mb - 0.00 in0.0 mm 0.05 in1.3 mm
12:25 PM 78.5°F25.8°C 66.6°F19.2°C 67% 4.6 mph E7.4 kmh E 8.1 mph13.0 kmh 30.11 in1019.6 mb - 0.00 in0.0 mm 0.05 in1.3 mm
12:30 PM 78.6°F25.9°C 66.3°F19.1°C 66% 6.9 mph ENE11.1 kmh ENE 8.1 mph13.0 kmh 30.11 in1019.6 mb - 0.00 in0.0 mm 0.05 in1.3 mm
12:35 PM 78.6°F25.9°C 66.3°F19.1°C 66% 2.3 mph ESE3.7 kmh ESE 3.5 mph5.6 kmh 30.11 in1019.6 mb - 0.00 in0.0 mm 0.05 in1.3 mm
12:40 PM 78.5°F25.8°C 65.8°F18.8°C 65% 2.3 mph ESE3.7 kmh ESE 5.8 mph9.3 kmh 30.11 in1019.6 mb - 0.00 in0.0 mm 0.05 in1.3 mm
12:45 PM 78.3°F25.7°C 66.4°F19.1°C 67% 2.3 mph ESE3.7 kmh ESE 4.6 mph7.4 kmh 30.10 in1019.3 mb - 0.00 in0.0 mm 0.05 in1.3 mm
12:50 PM 78.2°F25.7°C 66.3°F19.1°C 67% 4.6 mph E7.4 kmh E 8.1 mph13.0 kmh 30.10 in1019.3 mb - 0.00 in0.0 mm 0.05 in1.3 mm
12:55 PM 78.3°F25.7°C 66.4°F19.1°C 67% 2.3 mph E3.7 kmh E 4.6 mph7.4 kmh 30.10 in1019.3 mb - 0.00 in0.0 mm 0.05 in1.3 mm
01:00 PM 78.4°F25.8°C 65.7°F18.7°C 65% 2.3 mph E3.7 kmh E 3.5 mph5.6 kmh 30.10 in1019.3 mb - 0.00 in0.0 mm 0.05 in1.3 mm
01:05 PM 78.8°F26.0°C 66.4°F19.1°C 66% 1.2 mph E1.9 kmh E 2.3 mph3.7 kmh 30.10 in1019.3 mb - 0.00 in0.0 mm 0.05 in1.3 mm
01:10 PM 79.2°F26.2°C 65.5°F18.6°C 63% 3.5 mph NE5.6 kmh NE 4.6 mph7.4 kmh 30.10 in1019.3 mb - 0.00 in0.0 mm 0.05 in1.3 mm
01:15 PM 79.0°F26.1°C 64.9°F18.3°C 62% 2.3 mph SE3.7 kmh SE 3.5 mph5.6 kmh 30.10 in1019.3 mb - 0.00 in0.0 mm 0.05 in1.3 mm
01:20 PM 79.1°F26.2°C 65.0°F18.3°C 62% 2.3 mph NNE3.7 kmh NNE 3.5 mph5.6 kmh 30.10 in1019.3 mb - 0.00 in0.0 mm 0.05 in1.3 mm
01:25 PM 79.1°F26.2°C 65.4°F18.6°C 63% 3.5 mph N5.6 kmh N 3.5 mph5.6 kmh 30.10 in1019.3 mb - 0.00 in0.0 mm 0.05 in1.3 mm
01:30 PM 78.9°F26.1°C 65.2°F18.4°C 63% 4.6 mph ESE7.4 kmh ESE 5.8 mph9.3 kmh 30.10 in1019.3 mb - 0.00 in0.0 mm 0.05 in1.3 mm
01:35 PM 79.0°F26.1°C 65.7°F18.7°C 64% 3.5 mph E5.6 kmh E 4.6 mph7.4 kmh 30.10 in1019.3 mb - 0.00 in0.0 mm 0.05 in1.3 mm
01:40 PM 79.0°F26.1°C 65.8°F18.8°C 64% 4.6 mph SE7.4 kmh SE 4.6 mph7.4 kmh 30.10 in1019.3 mb - 0.00 in0.0 mm 0.05 in1.3 mm
01:45 PM 78.9°F26.1°C 65.7°F18.7°C 64% 4.6 mph SE7.4 kmh SE 3.5 mph5.6 kmh 30.10 in1019.3 mb - 0.00 in0.0 mm 0.05 in1.3 mm
01:50 PM 78.9°F26.1°C 65.7°F18.7°C 64% 4.6 mph ESE7.4 kmh ESE 5.8 mph9.3 kmh 30.10 in1019.3 mb - 0.00 in0.0 mm 0.05 in1.3 mm
01:55 PM 78.9°F26.1°C 65.2°F18.4°C 63% 2.3 mph ESE3.7 kmh ESE 3.5 mph5.6 kmh 30.10 in1019.3 mb - 0.00 in0.0 mm 0.05 in1.3 mm
02:00 PM 79.0°F26.1°C 65.7°F18.7°C 64% 1.2 mph ESE1.9 kmh ESE 3.5 mph5.6 kmh 30.10 in1019.3 mb - 0.00 in0.0 mm 0.05 in1.3 mm
02:05 PM 79.1°F26.2°C 65.4°F18.6°C 63% 3.5 mph E5.6 kmh E 4.6 mph7.4 kmh 30.10 in1019.3 mb - 0.00 in0.0 mm 0.05 in1.3 mm
02:10 PM 79.1°F26.2°C 65.4°F18.6°C 63% 3.5 mph E5.6 kmh E 4.6 mph7.4 kmh 30.10 in1019.3 mb - 0.00 in0.0 mm 0.05 in1.3 mm
02:15 PM 79.0°F26.1°C 65.3°F18.5°C 63% 2.3 mph ENE3.7 kmh ENE 3.5 mph5.6 kmh 30.09 in1019.0 mb - 0.00 in0.0 mm 0.05 in1.3 mm
02:20 PM 78.9°F26.1°C 66.1°F18.9°C 65% 3.5 mph ESE5.6 kmh ESE 3.5 mph5.6 kmh 30.09 in1019.0 mb - 0.00 in0.0 mm 0.05 in1.3 mm
02:25 PM 78.8°F26.0°C 65.6°F18.7°C 64% 2.3 mph SE3.7 kmh SE 4.6 mph7.4 kmh 30.09 in1019.0 mb - 0.00 in0.0 mm 0.05 in1.3 mm
02:30 PM 78.7°F25.9°C 65.9°F18.8°C 65% 1.2 mph SE1.9 kmh SE 2.3 mph3.7 kmh 30.09 in1019.0 mb - 0.00 in0.0 mm 0.05 in1.3 mm
02:35 PM 78.8°F26.0°C 66.0°F18.9°C 65% 2.3 mph SE3.7 kmh SE 3.5 mph5.6 kmh 30.09 in1019.0 mb - 0.00 in0.0 mm 0.05 in1.3 mm
02:40 PM 78.9°F26.1°C 66.5°F19.2°C 66% 1.2 mph SE1.9 kmh SE 3.5 mph5.6 kmh 30.09 in1019.0 mb - 0.00 in0.0 mm 0.05 in1.3 mm
02:45 PM 79.1°F26.2°C 65.9°F18.8°C 64% 2.3 mph SSE3.7 kmh SSE 2.3 mph3.7 kmh 30.09 in1019.0 mb - 0.00 in0.0 mm 0.05 in1.3 mm
02:50 PM 79.1°F26.2°C 65.8°F18.8°C 64% 1.2 mph SE1.9 kmh SE 2.3 mph3.7 kmh 30.09 in1019.0 mb - 0.00 in0.0 mm 0.05 in1.3 mm
02:55 PM 79.1°F26.2°C 66.3°F19.1°C 65% 1.2 mph E1.9 kmh E 3.5 mph5.6 kmh 30.09 in1019.0 mb - 0.00 in0.0 mm 0.05 in1.3 mm
03:00 PM 79.2°F26.2°C 66.4°F19.1°C 65% 2.3 mph E3.7 kmh E 2.3 mph3.7 kmh 30.09 in1019.0 mb - 0.00 in0.0 mm 0.05 in1.3 mm
03:05 PM 79.3°F26.3°C 66.1°F18.9°C 64% 1.2 mph E1.9 kmh E 3.5 mph5.6 kmh 30.09 in1019.0 mb - 0.00 in0.0 mm 0.05 in1.3 mm
03:10 PM 79.3°F26.3°C 66.1°F18.9°C 64% 2.3 mph ESE3.7 kmh ESE 3.5 mph5.6 kmh 30.09 in1019.0 mb - 0.00 in0.0 mm 0.05 in1.3 mm
03:15 PM 79.1°F26.2°C 65.9°F18.8°C 64% 1.2 mph ESE1.9 kmh ESE 2.3 mph3.7 kmh 30.09 in1019.0 mb - 0.00 in0.0 mm 0.05 in1.3 mm
03:20 PM 79.0°F26.1°C 65.8°F18.8°C 64% 1.2 mph SE1.9 kmh SE 2.3 mph3.7 kmh 30.09 in1019.0 mb - 0.00 in0.0 mm 0.05 in1.3 mm
03:25 PM 78.9°F26.1°C 66.1°F18.9°C 65% 2.3 mph SE3.7 kmh SE 3.5 mph5.6 kmh 30.09 in1019.0 mb - 0.00 in0.0 mm 0.05 in1.3 mm
03:30 PM 78.9°F26.1°C 66.1°F18.9°C 65% Calm Calm 1.2 mph1.9 kmh 30.09 in1019.0 mb - 0.00 in0.0 mm 0.05 in1.3 mm
03:35 PM 78.9°F26.1°C 66.1°F18.9°C 65% 2.3 mph SE3.7 kmh SE 3.5 mph5.6 kmh 30.09 in1019.0 mb - 0.00 in0.0 mm 0.05 in1.3 mm
03:40 PM 78.9°F26.1°C 66.6°F19.2°C 66% 2.3 mph SE3.7 kmh SE 3.5 mph5.6 kmh 30.09 in1019.0 mb - 0.00 in0.0 mm 0.05 in1.3 mm
03:45 PM 79.0°F26.1°C 66.2°F19.0°C 65% 3.5 mph S5.6 kmh S 3.5 mph5.6 kmh 30.08 in1018.6 mb - 0.00 in0.0 mm 0.05 in1.3 mm
03:50 PM 79.1°F26.2°C 66.8°F19.3°C 66% 2.3 mph SE3.7 kmh SE 4.6 mph7.4 kmh 30.08 in1018.6 mb - 0.00 in0.0 mm 0.05 in1.3 mm
03:55 PM 79.0°F26.1°C 65.8°F18.8°C 64% 3.5 mph SE5.6 kmh SE 4.6 mph7.4 kmh 30.08 in1018.6 mb - 0.00 in0.0 mm 0.05 in1.3 mm
04:00 PM 78.9°F26.1°C 65.7°F18.7°C 64% 2.3 mph SE3.7 kmh SE 3.5 mph5.6 kmh 30.08 in1018.6 mb - 0.00 in0.0 mm 0.05 in1.3 mm
04:05 PM 79.0°F26.1°C 66.2°F19.0°C 65% 2.3 mph SE3.7 kmh SE 3.5 mph5.6 kmh 30.08 in1018.6 mb - 0.00 in0.0 mm 0.05 in1.3 mm
04:10 PM 79.1°F26.2°C 66.3°F19.1°C 65% 2.3 mph SE3.7 kmh SE 3.5 mph5.6 kmh 30.08 in1018.6 mb - 0.00 in0.0 mm 0.05 in1.3 mm
04:15 PM 79.1°F26.2°C 66.4°F19.1°C 65% 2.3 mph SE3.7 kmh SE 3.5 mph5.6 kmh 30.07 in1018.3 mb - 0.00 in0.0 mm 0.05 in1.3 mm
04:20 PM 79.1°F26.2°C 65.9°F18.8°C 64% 2.3 mph SSE3.7 kmh SSE 3.5 mph5.6 kmh 30.07 in1018.3 mb - 0.00 in0.0 mm 0.05 in1.3 mm
04:25 PM 79.2°F26.2°C 65.5°F18.6°C 63% 1.2 mph SSE1.9 kmh SSE 2.3 mph3.7 kmh 30.08 in1018.6 mb - 0.00 in0.0 mm 0.05 in1.3 mm
04:30 PM 79.4°F26.3°C 66.2°F19.0°C 64% 3.5 mph SSE5.6 kmh SSE 4.6 mph7.4 kmh 30.08 in1018.6 mb - 0.00 in0.0 mm 0.05 in1.3 mm
04:35 PM 79.3°F26.3°C 65.6°F18.7°C 63% 2.3 mph SSE3.7 kmh SSE 3.5 mph5.6 kmh 30.08 in1018.6 mb - 0.00 in0.0 mm 0.05 in1.3 mm
04:40 PM 79.3°F26.3°C 65.6°F18.7°C 63% 2.3 mph SE3.7 kmh SE 4.6 mph7.4 kmh 30.08 in1018.6 mb - 0.00 in0.0 mm 0.05 in1.3 mm
04:45 PM 79.2°F26.2°C 66.0°F18.9°C 64% 2.3 mph SSE3.7 kmh SSE 3.5 mph5.6 kmh 30.08 in1018.6 mb - 0.00 in0.0 mm 0.05 in1.3 mm
04:50 PM 79.1°F26.2°C 65.9°F18.8°C 64% 2.3 mph SSE3.7 kmh SSE 3.5 mph5.6 kmh 30.08 in1018.6 mb - 0.00 in0.0 mm 0.05 in1.3 mm
04:55 PM 79.1°F26.2°C 65.9°F18.8°C 64% 3.5 mph SE5.6 kmh SE 4.6 mph7.4 kmh 30.08 in1018.6 mb - 0.00 in0.0 mm 0.05 in1.3 mm
05:00 PM 79.1°F26.2°C 65.4°F18.6°C 63% 3.5 mph SE5.6 kmh SE 4.6 mph7.4 kmh 30.08 in1018.6 mb - 0.00 in0.0 mm 0.05 in1.3 mm
05:05 PM 79.0°F26.1°C 65.3°F18.5°C 63% 2.3 mph SSE3.7 kmh SSE 3.5 mph5.6 kmh 30.08 in1018.6 mb - 0.00 in0.0 mm 0.05 in1.3 mm
05:10 PM 79.2°F26.2°C 65.5°F18.6°C 63% 4.6 mph SSE7.4 kmh SSE 4.6 mph7.4 kmh 30.08 in1018.6 mb - 0.00 in0.0 mm 0.05 in1.3 mm
05:15 PM 79.3°F26.3°C 66.1°F18.9°C 64% 2.3 mph SE3.7 kmh SE 3.5 mph5.6 kmh 30.08 in1018.6 mb - 0.00 in0.0 mm 0.05 in1.3 mm
05:20 PM 79.4°F26.3°C 66.2°F19.0°C 64% 3.5 mph SE5.6 kmh SE 4.6 mph7.4 kmh 30.07 in1018.3 mb - 0.00 in0.0 mm 0.05 in1.3 mm
05:25 PM 79.5°F26.4°C 65.8°F18.8°C 63% 2.3 mph SE3.7 kmh SE 3.5 mph5.6 kmh 30.07 in1018.3 mb - 0.00 in0.0 mm 0.05 in1.3 mm
05:30 PM 79.4°F26.3°C 65.7°F18.7°C 63% 2.3 mph ESE3.7 kmh ESE 3.5 mph5.6 kmh 30.07 in1018.3 mb - 0.00 in0.0 mm 0.05 in1.3 mm
05:35 PM 79.2°F26.2°C 65.5°F18.6°C 63% 2.3 mph ESE3.7 kmh ESE 3.5 mph5.6 kmh 30.07 in1018.3 mb - 0.00 in0.0 mm 0.05 in1.3 mm
05:40 PM 79.2°F26.2°C 66.0°F18.9°C 64% 1.2 mph ESE1.9 kmh ESE 2.3 mph3.7 kmh 30.07 in1018.3 mb - 0.00 in0.0 mm 0.05 in1.3 mm
05:45 PM 79.1°F26.2°C 66.3°F19.1°C 65% 1.2 mph ESE1.9 kmh ESE 2.3 mph3.7 kmh 30.07 in1018.3 mb - 0.00 in0.0 mm 0.05 in1.3 mm
05:50 PM 78.8°F26.0°C 66.0°F18.9°C 65% 2.3 mph ESE3.7 kmh ESE 2.3 mph3.7 kmh 30.07 in1018.3 mb - 0.00 in0.0 mm 0.05 in1.3 mm
05:55 PM 78.6°F25.9°C 66.3°F19.1°C 66% 1.2 mph ESE1.9 kmh ESE 2.3 mph3.7 kmh 30.07 in1018.3 mb - 0.00 in0.0 mm 0.05 in1.3 mm
06:00 PM 78.6°F25.9°C 65.8°F18.8°C 65% Calm Calm -- 30.07 in1018.3 mb - 0.00 in0.0 mm 0.05 in1.3 mm
06:05 PM 78.6°F25.9°C 66.3°F19.1°C 66% 1.2 mph ESE1.9 kmh ESE 2.3 mph3.7 kmh 30.07 in1018.3 mb - 0.00 in0.0 mm 0.05 in1.3 mm
06:10 PM 78.4°F25.8°C 66.1°F18.9°C 66% 1.2 mph ESE1.9 kmh ESE 2.3 mph3.7 kmh 30.07 in1018.3 mb - 0.00 in0.0 mm 0.05 in1.3 mm
06:15 PM 78.2°F25.7°C 65.9°F18.8°C 66% 1.2 mph ESE1.9 kmh ESE 2.3 mph3.7 kmh 30.07 in1018.3 mb - 0.00 in0.0 mm 0.05 in1.3 mm
06:20 PM 78.1°F25.6°C 66.7°F19.3°C 68% Calm Calm 1.2 mph1.9 kmh 30.07 in1018.3 mb - 0.00 in0.0 mm 0.05 in1.3 mm
06:25 PM 78.1°F25.6°C 66.7°F19.3°C 68% Calm Calm -- 30.07 in1018.3 mb - 0.00 in0.0 mm 0.05 in1.3 mm
06:30 PM 78.0°F25.6°C 66.6°F19.2°C 68% Calm Calm -- 30.07 in1018.3 mb - 0.00 in0.0 mm 0.05 in1.3 mm
06:35 PM 77.9°F25.5°C 66.5°F19.2°C 68% Calm Calm -- 30.07 in1018.3 mb - 0.00 in0.0 mm 0.05 in1.3 mm
06:40 PM 77.7°F25.4°C 66.3°F19.1°C 68% Calm Calm -- 30.07 in1018.3 mb - 0.00 in0.0 mm 0.05 in1.3 mm
06:45 PM 77.6°F25.3°C 66.6°F19.2°C 69% Calm Calm -- 30.07 in1018.3 mb - 0.00 in0.0 mm 0.05 in1.3 mm
06:50 PM 77.5°F25.3°C 66.5°F19.2°C 69% Calm Calm -- 30.07 in1018.3 mb - 0.00 in0.0 mm 0.05 in1.3 mm
06:55 PM 77.4°F25.2°C 66.4°F19.1°C 69% Calm Calm -- 30.07 in1018.3 mb - 0.00 in0.0 mm 0.05 in1.3 mm
07:00 PM 77.4°F25.2°C 66.4°F19.1°C 69% Calm Calm -- 30.07 in1018.3 mb - 0.00 in0.0 mm 0.05 in1.3 mm
07:05 PM 77.3°F25.2°C 66.3°F19.1°C 69% Calm Calm -- 30.07 in1018.3 mb - 0.00 in0.0 mm 0.05 in1.3 mm
07:10 PM 77.2°F25.1°C 66.7°F19.3°C 70% Calm Calm -- 30.07 in1018.3 mb - 0.00 in0.0 mm 0.05 in1.3 mm
07:15 PM 77.1°F25.1°C 66.6°F19.2°C 70% Calm Calm -- 30.07 in1018.3 mb - 0.00 in0.0 mm 0.05 in1.3 mm
07:20 PM 77.0°F25.0°C 66.5°F19.2°C 70% Calm Calm -- 30.07 in1018.3 mb - 0.00 in0.0 mm 0.05 in1.3 mm
07:25 PM 76.8°F24.9°C 66.3°F19.1°C 70% Calm Calm -- 30.07 in1018.3 mb - 0.00 in0.0 mm 0.05 in1.3 mm
07:30 PM 76.7°F24.8°C 66.6°F19.2°C 71% Calm Calm -- 30.07 in1018.3 mb - 0.00 in0.0 mm 0.05 in1.3 mm
07:35 PM 76.6°F24.8°C 66.5°F19.2°C 71% Calm Calm -- 30.07 in1018.3 mb - 0.00 in0.0 mm 0.05 in1.3 mm
07:40 PM 76.5°F24.7°C 66.8°F19.3°C 72% Calm Calm -- 30.07 in1018.3 mb - 0.00 in0.0 mm 0.05 in1.3 mm
07:45 PM 76.4°F24.7°C 66.7°F19.3°C 72% Calm Calm -- 30.07 in1018.3 mb - 0.00 in0.0 mm 0.05 in1.3 mm
07:50 PM 76.2°F24.6°C 66.5°F19.2°C 72% Calm Calm -- 30.07 in1018.3 mb - 0.00 in0.0 mm 0.05 in1.3 mm
07:55 PM 76.1°F24.5°C 66.8°F19.3°C 73% Calm Calm -- 30.08 in1018.6 mb - 0.00 in0.0 mm 0.05 in1.3 mm
08:00 PM 76.0°F24.4°C 66.7°F19.3°C 73% Calm Calm -- 30.08 in1018.6 mb - 0.00 in0.0 mm 0.05 in1.3 mm
08:05 PM 75.9°F24.4°C 66.6°F19.2°C 73% Calm Calm -- 30.08 in1018.6 mb - 0.00 in0.0 mm 0.05 in1.3 mm
08:10 PM 75.8°F24.3°C 66.5°F19.2°C 73% Calm Calm -- 30.08 in1018.6 mb - 0.00 in0.0 mm 0.05 in1.3 mm
08:15 PM 75.7°F24.3°C 66.8°F19.3°C 74% Calm Calm -- 30.08 in1018.6 mb - 0.00 in0.0 mm 0.05 in1.3 mm
08:20 PM 75.5°F24.2°C 66.6°F19.2°C 74% Calm Calm -- 30.08 in1018.6 mb - 0.00 in0.0 mm 0.05 in1.3 mm
08:25 PM 75.4°F24.1°C 66.5°F19.2°C 74% Calm Calm -- 30.08 in1018.6 mb - 0.00 in0.0 mm 0.05 in1.3 mm
08:30 PM 75.3°F24.1°C 66.4°F19.1°C 74% Calm Calm -- 30.08 in1018.6 mb - 0.00 in0.0 mm 0.05 in1.3 mm
08:35 PM 75.1°F23.9°C 66.6°F19.2°C 75% Calm Calm -- 30.08 in1018.6 mb - 0.00 in0.0 mm 0.05 in1.3 mm
08:40 PM 75.0°F23.9°C 66.9°F19.4°C 76% Calm Calm -- 30.08 in1018.6 mb - 0.00 in0.0 mm 0.05 in1.3 mm
08:45 PM 74.8°F23.8°C 66.7°F19.3°C 76% Calm Calm -- 30.08 in1018.6 mb - 0.00 in0.0 mm 0.05 in1.3 mm
08:50 PM 74.7°F23.7°C 66.6°F19.2°C 76% Calm Calm -- 30.08 in1018.6 mb - 0.00 in0.0 mm 0.05 in1.3 mm
08:55 PM 74.6°F23.7°C 66.9°F19.4°C 77% Calm Calm -- 30.08 in1018.6 mb - 0.00 in0.0 mm 0.05 in1.3 mm
09:00 PM 74.4°F23.6°C 66.7°F19.3°C 77% Calm Calm -- 30.08 in1018.6 mb - 0.00 in0.0 mm 0.05 in1.3 mm
09:05 PM 74.3°F23.5°C 66.6°F19.2°C 77% Calm Calm -- 30.08 in1018.6 mb - 0.00 in0.0 mm 0.05 in1.3 mm
09:10 PM 74.0°F23.3°C 66.3°F19.1°C 77% Calm Calm -- 30.08 in1018.6 mb - 0.00 in0.0 mm 0.05 in1.3 mm
09:15 PM 73.9°F23.3°C 66.2°F19.0°C 77% Calm Calm -- 30.08 in1018.6 mb - 0.00 in0.0 mm 0.05 in1.3 mm
09:20 PM 73.7°F23.2°C 66.4°F19.1°C 78% Calm Calm -- 30.08 in1018.6 mb - 0.00 in0.0 mm 0.05 in1.3 mm
09:25 PM 73.6°F23.1°C 66.3°F19.1°C 78% Calm Calm -- 30.08 in1018.6 mb - 0.00 in0.0 mm 0.05 in1.3 mm
09:30 PM 73.4°F23.0°C 66.5°F19.2°C 79% Calm Calm -- 30.08 in1018.6 mb - 0.00 in0.0 mm 0.05 in1.3 mm
09:35 PM 73.2°F22.9°C 66.3°F19.1°C 79% Calm Calm -- 30.08 in1018.6 mb - 0.00 in0.0 mm 0.05 in1.3 mm
09:40 PM 73.1°F22.8°C 66.2°F19.0°C 79% Calm Calm -- 30.08 in1018.6 mb - 0.00 in0.0 mm 0.05 in1.3 mm
09:45 PM 73.0°F22.8°C 66.1°F18.9°C 79% Calm Calm -- 30.08 in1018.6 mb - 0.00 in0.0 mm 0.05 in1.3 mm
09:50 PM 72.9°F22.7°C 66.4°F19.1°C 80% Calm Calm -- 30.08 in1018.6 mb - 0.00 in0.0 mm 0.05 in1.3 mm
09:55 PM 72.8°F22.7°C 66.3°F19.1°C 80% Calm Calm -- 30.08 in1018.6 mb - 0.00 in0.0 mm 0.05 in1.3 mm
10:00 PM 72.7°F22.6°C 66.2°F19.0°C 80% Calm Calm -- 30.08 in1018.6 mb - 0.00 in0.0 mm 0.05 in1.3 mm
10:05 PM 72.6°F22.6°C 66.4°F19.1°C 81% Calm Calm -- 30.08 in1018.6 mb - 0.00 in0.0 mm 0.05 in1.3 mm
10:10 PM 72.5°F22.5°C 66.3°F19.1°C 81% Calm Calm -- 30.08 in1018.6 mb - 0.00 in0.0 mm 0.05 in1.3 mm
10:15 PM 72.5°F22.5°C 66.3°F19.1°C 81% Calm Calm -- 30.08 in1018.6 mb - 0.00 in0.0 mm 0.05 in1.3 mm
10:20 PM 72.4°F22.4°C 66.6°F19.2°C 82% Calm Calm -- 30.08 in1018.6 mb - 0.00 in0.0 mm 0.05 in1.3 mm
10:25 PM 72.3°F22.4°C 66.5°F19.2°C 82% 1.2 mph ESE1.9 kmh ESE 2.3 mph3.7 kmh 30.08 in1018.6 mb - 0.00 in0.0 mm 0.05 in1.3 mm
10:30 PM 72.2°F22.3°C 66.7°F19.3°C 83% 1.2 mph ESE1.9 kmh ESE 2.3 mph3.7 kmh 30.08 in1018.6 mb - 0.00 in0.0 mm 0.05 in1.3 mm
10:35 PM 72.1°F22.3°C 66.6°F19.2°C 83% 1.2 mph ESE1.9 kmh ESE 2.3 mph3.7 kmh 30.08 in1018.6 mb - 0.00 in0.0 mm 0.05 in1.3 mm
10:40 PM 72.0°F22.2°C 66.5°F19.2°C 83% 2.3 mph ESE3.7 kmh ESE 3.5 mph5.6 kmh 30.08 in1018.6 mb - 0.00 in0.0 mm 0.05 in1.3 mm
10:45 PM 71.8°F22.1°C 66.4°F19.1°C 83% Calm Calm -- 30.08 in1018.6 mb - 0.00 in0.0 mm 0.05 in1.3 mm
10:50 PM 71.8°F22.1°C 66.4°F19.1°C 83% Calm Calm -- 30.08 in1018.6 mb - 0.00 in0.0 mm 0.05 in1.3 mm
10:55 PM 71.7°F22.1°C 66.3°F19.1°C 83% Calm Calm -- 30.08 in1018.6 mb - 0.00 in0.0 mm 0.05 in1.3 mm
11:00 PM 71.7°F22.1°C 66.6°F19.2°C 84% Calm Calm -- 30.08 in1018.6 mb - 0.00 in0.0 mm 0.05 in1.3 mm
11:05 PM 71.7°F22.1°C 66.6°F19.2°C 84% Calm Calm -- 30.08 in1018.6 mb - 0.00 in0.0 mm 0.05 in1.3 mm
11:10 PM 71.6°F22.0°C 66.5°F19.2°C 84% Calm Calm -- 30.08 in1018.6 mb - 0.00 in0.0 mm 0.05 in1.3 mm
11:15 PM 71.6°F22.0°C 66.5°F19.2°C 84% Calm Calm -- 30.08 in1018.6 mb - 0.00 in0.0 mm 0.05 in1.3 mm
11:20 PM 71.6°F22.0°C 66.5°F19.2°C 84% Calm Calm -- 30.08 in1018.6 mb - 0.00 in0.0 mm 0.05 in1.3 mm
11:25 PM 71.5°F21.9°C 66.4°F19.1°C 84% Calm Calm -- 30.08 in1018.6 mb - 0.00 in0.0 mm 0.05 in1.3 mm
11:30 PM 71.5°F21.9°C 66.4°F19.1°C 84% Calm Calm -- 30.08 in1018.6 mb - 0.00 in0.0 mm 0.05 in1.3 mm
11:35 PM 71.5°F21.9°C 66.4°F19.1°C 84% Calm Calm -- 30.08 in1018.6 mb - 0.00 in0.0 mm 0.05 in1.3 mm
11:40 PM 71.6°F22.0°C 66.5°F19.2°C 84% Calm Calm -- 30.08 in1018.6 mb - 0.00 in0.0 mm 0.05 in1.3 mm
11:45 PM 71.6°F22.0°C 66.5°F19.2°C 84% Calm Calm -- 30.08 in1018.6 mb - 0.00 in0.0 mm 0.05 in1.3 mm
11:50 PM 71.6°F22.0°C 66.5°F19.2°C 84% Calm Calm -- 30.08 in1018.6 mb - 0.00 in0.0 mm 0.05 in1.3 mm
11:55 PM 71.7°F22.1°C 66.6°F19.2°C 84% Calm Calm -- 30.08 in1018.6 mb - 0.00 in0.0 mm 0.05 in1.3 mm